createdAt,value
2023-07-22T00:00:55.594Z,60.77
2023-07-22T00:03:22.194Z,61.18
2023-07-22T00:05:48.636Z,61.26
2023-07-22T00:08:15.009Z,61.71
2023-07-22T00:10:41.393Z,61.48
2023-07-22T00:13:07.741Z,60.93
2023-07-22T00:15:34.102Z,60.98
2023-07-22T00:18:00.542Z,61.35
2023-07-22T00:20:26.920Z,61.38
2023-07-22T00:22:53.261Z,61.83
2023-07-22T00:25:19.664Z,61.01
2023-07-22T00:27:46.011Z,60.67
2023-07-22T00:30:12.364Z,61.12
2023-07-22T00:32:38.820Z,61.99
2023-07-22T00:35:05.235Z,62.66
2023-07-22T00:37:31.594Z,63.24
2023-07-22T00:39:57.966Z,63.70
2023-07-22T00:42:24.316Z,63.77
2023-07-22T00:44:50.675Z,64.68
2023-07-22T00:47:17.052Z,64.12
2023-07-22T00:49:43.423Z,63.94
2023-07-22T00:52:09.770Z,65.14
2023-07-22T00:54:36.137Z,66.15
2023-07-22T00:57:02.491Z,66.35
2023-07-22T00:59:28.835Z,66.09
2023-07-22T01:01:55.220Z,66.39
2023-07-22T01:04:21.588Z,66.81
2023-07-22T01:06:47.942Z,67.38
2023-07-22T01:09:14.324Z,68.58
2023-07-22T01:11:40.691Z,67.45
2023-07-22T01:16:33.409Z,66.67
2023-07-22T01:18:59.790Z,67.14
2023-07-22T01:21:26.187Z,67.18
2023-07-22T01:23:52.576Z,67.48
2023-07-22T01:26:18.935Z,66.94
2023-07-22T01:28:45.285Z,66.60
2023-07-22T01:31:11.713Z,67.86
2023-07-22T01:33:38.089Z,67.37
2023-07-22T01:36:04.435Z,68.06
2023-07-22T01:38:30.824Z,68.29
2023-07-22T01:40:57.166Z,68.05
2023-07-22T01:43:23.537Z,67.91
2023-07-22T01:45:49.899Z,67.58
2023-07-22T01:48:16.349Z,67.01
2023-07-22T01:50:42.705Z,67.86
2023-07-22T01:53:09.061Z,67.71
2023-07-22T01:55:35.456Z,68.20
2023-07-22T01:58:01.808Z,68.29
2023-07-22T02:00:28.225Z,68.60
2023-07-22T02:02:54.710Z,69.37
2023-07-22T02:05:21.105Z,70.29
2023-07-22T02:07:47.477Z,70.94
2023-07-22T02:10:13.852Z,71.38
2023-07-22T02:12:40.227Z,71.48
2023-07-22T02:15:06.649Z,70.14
2023-07-22T02:17:33.117Z,69.99
2023-07-22T02:19:59.527Z,69.27
2023-07-22T02:22:25.934Z,68.88
2023-07-22T02:24:52.347Z,68.13
2023-07-22T02:27:18.740Z,68.81
2023-07-22T02:29:45.096Z,68.73
2023-07-22T02:32:11.444Z,68.63
2023-07-22T02:34:37.814Z,69.39
2023-07-22T02:37:04.255Z,69.16
2023-07-22T02:39:30.593Z,69.01
2023-07-22T02:41:56.956Z,69.34
2023-07-22T02:44:23.327Z,69.11
2023-07-22T02:46:49.710Z,68.71
2023-07-22T02:49:16.064Z,68.26
2023-07-22T02:51:42.451Z,67.20
2023-07-22T02:54:08.864Z,67.27
2023-07-22T02:56:35.205Z,68.84
2023-07-22T02:59:01.560Z,69.53
2023-07-22T03:01:27.913Z,69.27
2023-07-22T03:03:54.295Z,68.66
2023-07-22T03:06:20.669Z,68.41
2023-07-22T03:08:47.017Z,69.13
2023-07-22T03:11:13.362Z,69.77
2023-07-22T03:13:39.727Z,69.76
2023-07-22T03:16:06.213Z,68.37
2023-07-22T03:18:32.695Z,68.54
2023-07-22T03:20:59.048Z,68.27
2023-07-22T03:23:25.396Z,68.14
2023-07-22T03:25:51.737Z,68.85
2023-07-22T03:28:18.097Z,68.69
2023-07-22T03:30:44.442Z,68.82
2023-07-22T03:33:10.833Z,69.20
2023-07-22T03:35:37.197Z,69.82
2023-07-22T03:38:03.565Z,70.60
2023-07-22T03:40:29.914Z,70.47
2023-07-22T03:42:56.333Z,70.05
2023-07-22T03:45:22.699Z,70.42
2023-07-22T03:47:49.048Z,70.04
2023-07-22T03:50:15.474Z,70.29
2023-07-22T03:52:41.821Z,69.87
2023-07-22T03:55:08.160Z,69.99
2023-07-22T03:57:36.042Z,70.68
2023-07-22T04:00:03.048Z,70.56
2023-07-22T04:02:29.442Z,71.38
2023-07-22T04:04:55.817Z,72.15
2023-07-22T04:07:22.176Z,70.99
2023-07-22T04:09:48.537Z,71.15
2023-07-22T04:12:14.919Z,72.26
2023-07-22T04:14:41.283Z,72.18
2023-07-22T04:17:07.712Z,72.39
2023-07-22T04:19:34.459Z,71.33
2023-07-22T04:22:00.805Z,71.51
2023-07-22T04:24:27.264Z,71.67
2023-07-22T04:26:53.720Z,72.90
2023-07-22T04:29:20.093Z,72.52
2023-07-22T04:31:46.455Z,72.86
2023-07-22T04:34:12.836Z,71.71
2023-07-22T04:36:39.197Z,71.95
2023-07-22T04:39:05.550Z,71.80
2023-07-22T04:41:31.901Z,71.28
2023-07-22T04:43:58.239Z,71.04
2023-07-22T04:46:24.913Z,71.23
2023-07-22T04:48:51.697Z,71.13
2023-07-22T04:51:18.046Z,70.16
2023-07-22T04:53:44.394Z,70.02
2023-07-22T04:56:10.764Z,69.44
2023-07-22T04:58:37.112Z,68.08
2023-07-22T05:01:03.504Z,67.76
2023-07-22T05:03:30.015Z,67.21
2023-07-22T05:05:56.436Z,65.58
2023-07-22T05:08:22.780Z,66.07
2023-07-22T05:10:49.142Z,65.42
2023-07-22T05:13:15.549Z,66.15
2023-07-22T05:15:41.876Z,64.79
2023-07-22T05:18:08.291Z,64.83
2023-07-22T05:20:34.660Z,65.27
2023-07-22T05:23:01.012Z,63.85
2023-07-22T05:25:27.402Z,64.79
2023-07-22T05:27:53.742Z,65.87
2023-07-22T05:30:34.128Z,66.75
2023-07-22T05:33:02.494Z,66.61
2023-07-22T05:35:29.006Z,66.99
2023-07-22T05:37:55.392Z,65.24
2023-07-22T05:40:21.765Z,67.12
2023-07-22T05:42:48.142Z,63.82
2023-07-22T05:45:14.506Z,64.19
2023-07-22T05:47:40.935Z,64.72
2023-07-22T05:50:07.336Z,66.22
2023-07-22T05:52:33.706Z,66.28
2023-07-22T05:55:00.176Z,64.94
2023-07-22T05:57:27.629Z,62.70
2023-07-22T06:00:07.511Z,63.46
2023-07-22T06:02:35.600Z,63.98
2023-07-22T06:05:01.993Z,64.73
2023-07-22T06:07:28.363Z,66.43
2023-07-22T06:09:54.736Z,67.54
2023-07-22T06:12:21.070Z,65.81
2023-07-22T06:14:47.535Z,66.37
2023-07-22T06:17:13.933Z,66.12
2023-07-22T06:19:40.288Z,66.88
2023-07-22T06:22:06.634Z,66.50
2023-07-22T06:24:33.090Z,64.02
2023-07-22T06:26:59.501Z,63.40
2023-07-22T06:29:25.860Z,64.04
2023-07-22T06:31:52.306Z,63.83
2023-07-22T06:34:18.697Z,61.75
2023-07-22T06:36:45.052Z,61.85
2023-07-22T06:39:11.428Z,62.18
2023-07-22T06:41:37.774Z,61.55
2023-07-22T06:44:04.121Z,64.46
2023-07-22T06:46:30.903Z,62.87
2023-07-22T06:48:57.821Z,61.63
2023-07-22T06:51:24.173Z,62.21
2023-07-22T06:53:50.553Z,64.90
2023-07-22T06:56:16.903Z,64.23
2023-07-22T06:58:43.392Z,64.42
2023-07-22T07:01:09.844Z,65.09
2023-07-22T07:03:36.228Z,65.42
2023-07-22T07:06:02.579Z,63.74
2023-07-22T07:08:28.928Z,66.64
2023-07-22T07:10:56.639Z,66.35
2023-07-22T07:13:23.193Z,67.89
2023-07-22T07:15:49.587Z,68.92
2023-07-22T07:18:16.058Z,69.88
2023-07-22T07:20:42.423Z,69.07
2023-07-22T07:23:08.794Z,68.95
2023-07-22T07:25:35.147Z,69.45
2023-07-22T07:28:01.492Z,68.60
2023-07-22T07:30:27.867Z,71.14
2023-07-22T07:32:54.247Z,70.69
2023-07-22T07:35:20.636Z,71.30
2023-07-22T07:37:47.004Z,69.47
2023-07-22T07:40:13.349Z,68.91
2023-07-22T07:42:39.710Z,66.54
2023-07-22T07:45:06.080Z,67.97
2023-07-22T07:47:32.436Z,67.67
2023-07-22T07:49:58.857Z,67.48
2023-07-22T07:52:25.218Z,64.44
2023-07-22T07:54:51.571Z,66.84
2023-07-22T07:57:17.954Z,68.37
2023-07-22T07:59:44.321Z,67.42
2023-07-22T08:02:10.861Z,65.89
2023-07-22T08:04:37.367Z,66.56
2023-07-22T08:07:03.883Z,65.14
2023-07-22T08:09:30.663Z,67.10
2023-07-22T08:11:57.120Z,64.93
2023-07-22T08:14:23.592Z,64.67
2023-07-22T08:16:50.054Z,61.64
2023-07-22T08:19:16.510Z,56.68
2023-07-22T08:21:42.996Z,59.58
2023-07-22T08:24:09.477Z,56.56
2023-07-22T08:26:35.931Z,54.10
2023-07-22T08:29:02.359Z,55.99
2023-07-22T08:31:28.742Z,54.36
2023-07-22T08:33:55.141Z,52.00
2023-07-22T08:36:21.539Z,53.46
2023-07-22T08:38:47.896Z,53.13
2023-07-22T08:41:14.266Z,51.58
2023-07-22T08:43:40.644Z,52.77
2023-07-22T08:46:07.017Z,54.47
2023-07-22T08:48:33.424Z,54.16
2023-07-22T08:50:59.792Z,58.62
2023-07-22T08:53:26.154Z,53.31
2023-07-22T08:55:52.542Z,49.98
2023-07-22T08:58:18.979Z,48.84
2023-07-22T09:00:45.350Z,49.38
2023-07-22T09:03:11.743Z,50.73
2023-07-22T09:05:38.145Z,48.79
2023-07-22T09:08:04.494Z,50.98
2023-07-22T09:10:30.947Z,49.76
2023-07-22T09:12:57.431Z,49.93
2023-07-22T09:15:23.782Z,48.97
2023-07-22T09:17:50.168Z,49.30
2023-07-22T09:20:16.556Z,41.54
2023-07-22T09:22:43.082Z,41.72
2023-07-22T09:25:09.434Z,41.45
2023-07-22T09:27:37.539Z,39.22
2023-07-22T09:30:05.973Z,40.05
2023-07-22T09:32:32.342Z,38.76
2023-07-22T09:34:58.730Z,38.09
2023-07-22T09:37:25.070Z,37.10
2023-07-22T09:39:51.429Z,34.91
2023-07-22T09:42:17.822Z,35.14
2023-07-22T09:44:44.190Z,34.39
2023-07-22T09:47:10.709Z,34.61
2023-07-22T09:49:37.272Z,34.03
2023-07-22T09:52:03.652Z,32.25
2023-07-22T09:54:30.013Z,33.26
2023-07-22T09:56:56.377Z,34.35
2023-07-22T09:59:22.728Z,33.70
2023-07-22T10:01:49.121Z,33.69
2023-07-22T10:04:15.557Z,34.14
2023-07-22T10:06:41.930Z,33.68
2023-07-22T10:09:08.307Z,32.65
2023-07-22T10:11:34.712Z,33.31
2023-07-22T10:14:01.072Z,33.24
2023-07-22T10:16:27.622Z,32.44
2023-07-22T10:18:54.280Z,31.00
2023-07-22T10:21:20.693Z,31.36
2023-07-22T10:23:47.031Z,31.10
2023-07-22T10:26:13.396Z,32.37
2023-07-22T10:28:39.737Z,32.54
2023-07-22T10:31:06.140Z,31.79
2023-07-22T10:33:32.549Z,32.97
2023-07-22T10:35:58.898Z,29.85
2023-07-22T10:38:25.322Z,30.96
2023-07-22T10:40:51.677Z,31.82
2023-07-22T10:43:18.155Z,30.91
2023-07-22T10:45:44.495Z,31.42
2023-07-22T10:48:10.863Z,32.00
2023-07-22T10:50:37.233Z,30.93
2023-07-22T10:53:03.625Z,30.55
2023-07-22T10:55:30.041Z,30.39
2023-07-22T10:57:56.405Z,31.49
2023-07-22T11:00:22.756Z,31.79
2023-07-22T11:02:49.212Z,31.42
2023-07-22T11:05:15.598Z,31.24
2023-07-22T11:07:42.115Z,30.92
2023-07-22T11:10:09.726Z,30.48
2023-07-22T11:12:36.066Z,31.50
2023-07-22T11:15:02.425Z,31.28
2023-07-22T11:17:28.880Z,31.39
2023-07-22T11:19:55.276Z,30.42
2023-07-22T11:22:21.636Z,31.98
2023-07-22T11:24:48.143Z,30.70
2023-07-22T11:27:14.508Z,31.11
2023-07-22T11:29:40.868Z,32.63
2023-07-22T11:32:07.243Z,30.95
2023-07-22T11:34:34.143Z,31.59
2023-07-22T11:37:00.516Z,32.90
2023-07-22T11:39:26.908Z,31.81
2023-07-22T11:41:53.263Z,33.09
2023-07-22T11:44:19.614Z,33.39
2023-07-22T11:46:46.003Z,33.54
2023-07-22T11:49:12.353Z,33.29
2023-07-22T11:51:38.713Z,33.88
2023-07-22T11:54:05.088Z,32.67
2023-07-22T11:56:31.446Z,32.51
2023-07-22T11:58:57.803Z,32.17
2023-07-22T12:01:24.198Z,32.51
2023-07-22T12:03:50.590Z,32.87
2023-07-22T12:06:17.003Z,34.25
2023-07-22T12:08:44.193Z,31.06
2023-07-22T12:11:10.676Z,30.77
2023-07-22T12:13:37.028Z,31.24
2023-07-22T12:16:03.408Z,32.21
2023-07-22T12:18:29.788Z,32.19
2023-07-22T12:20:56.160Z,32.37
2023-07-22T12:23:22.535Z,32.69
2023-07-22T12:25:49.154Z,32.63
2023-07-22T12:28:15.518Z,32.99
2023-07-22T12:30:43.761Z,31.77
2023-07-22T12:33:10.163Z,31.56
2023-07-22T12:35:36.551Z,32.57
2023-07-22T12:38:02.950Z,32.42
2023-07-22T12:40:29.294Z,32.47
2023-07-22T12:42:55.637Z,31.77
2023-07-22T12:45:22.008Z,32.06
2023-07-22T12:47:48.391Z,31.74
2023-07-22T12:50:14.752Z,32.44
2023-07-22T12:52:41.125Z,32.16
2023-07-22T12:55:07.489Z,33.39
2023-07-22T12:57:33.906Z,32.57
2023-07-22T13:00:00.298Z,31.88
2023-07-22T13:02:26.836Z,32.07
2023-07-22T13:04:53.220Z,32.12
2023-07-22T13:07:19.605Z,30.26
2023-07-22T13:09:45.971Z,30.45
2023-07-22T13:12:12.371Z,30.25
2023-07-22T13:14:39.965Z,30.54
2023-07-22T13:17:06.504Z,31.17
2023-07-22T13:19:34.062Z,32.46
2023-07-22T13:22:00.465Z,32.14
2023-07-22T13:24:26.850Z,33.46
2023-07-22T13:26:53.241Z,33.93
2023-07-22T13:29:19.603Z,33.32
2023-07-22T13:31:45.964Z,32.73
2023-07-22T13:34:12.390Z,31.61
2023-07-22T13:36:38.835Z,32.46
2023-07-22T13:39:05.182Z,32.79
2023-07-22T13:41:31.566Z,33.32
2023-07-22T13:43:57.944Z,34.21
2023-07-22T13:46:24.337Z,35.91
2023-07-22T13:48:50.791Z,33.35
2023-07-22T13:51:17.153Z,32.98
2023-07-22T13:53:43.539Z,34.23
2023-07-22T13:56:09.902Z,33.18
2023-07-22T13:58:36.278Z,33.23
2023-07-22T14:01:02.799Z,32.24
2023-07-22T14:03:29.285Z,32.91
2023-07-22T14:05:55.675Z,33.50
2023-07-22T14:08:22.147Z,33.83
2023-07-22T14:10:48.534Z,31.76
2023-07-22T14:13:14.922Z,32.47
2023-07-22T14:15:41.375Z,32.05
2023-07-22T14:18:07.782Z,33.56
2023-07-22T14:20:34.158Z,33.87
2023-07-22T14:23:00.501Z,32.79
2023-07-22T14:25:26.834Z,34.38
2023-07-22T14:27:53.223Z,33.29
2023-07-22T14:30:19.592Z,32.66
2023-07-22T14:32:46.006Z,33.13
2023-07-22T14:35:12.387Z,33.30
2023-07-22T14:37:38.746Z,31.77
2023-07-22T14:40:05.148Z,33.10
2023-07-22T14:42:31.633Z,31.32
2023-07-22T14:44:58.001Z,31.58
2023-07-22T14:47:24.356Z,31.87
2023-07-22T14:49:53.259Z,31.71
2023-07-22T14:52:20.065Z,31.26
2023-07-22T14:54:46.435Z,33.23
2023-07-22T14:57:12.836Z,32.95
2023-07-22T14:59:39.209Z,33.70
2023-07-22T15:02:05.551Z,33.98
2023-07-22T15:04:31.915Z,34.18
2023-07-22T15:06:58.267Z,34.98
2023-07-22T15:09:24.619Z,34.56
2023-07-22T15:11:50.979Z,34.04
2023-07-22T15:14:17.349Z,33.78
2023-07-22T15:16:43.736Z,34.19
2023-07-22T15:19:10.146Z,34.52
2023-07-22T15:21:36.506Z,33.51
2023-07-22T15:24:02.887Z,33.74
2023-07-22T15:26:29.252Z,32.93
2023-07-22T15:28:55.583Z,32.88
2023-07-22T15:31:21.926Z,32.59
2023-07-22T15:33:48.313Z,32.62
2023-07-22T15:36:14.681Z,32.36
2023-07-22T15:38:41.030Z,33.43
2023-07-22T15:41:07.442Z,32.32
2023-07-22T15:43:33.783Z,33.34
2023-07-22T15:46:00.223Z,29.13
2023-07-22T15:48:26.772Z,27.52
2023-07-22T15:50:53.138Z,27.57
2023-07-22T15:53:19.491Z,27.35
2023-07-22T15:55:45.853Z,27.18
2023-07-22T15:58:12.200Z,27.07
2023-07-22T16:00:38.554Z,27.96
2023-07-22T16:03:05.025Z,26.91
2023-07-22T16:05:31.436Z,27.29
2023-07-22T16:07:57.832Z,27.74
2023-07-22T16:10:24.252Z,27.51
2023-07-22T16:12:50.645Z,27.44
2023-07-22T16:15:17.001Z,27.00
2023-07-22T16:17:43.465Z,26.94
2023-07-22T16:20:09.908Z,27.14
2023-07-22T16:22:37.745Z,27.50
2023-07-22T16:25:05.441Z,27.18
2023-07-22T16:27:31.807Z,27.58
2023-07-22T16:29:58.141Z,27.97
2023-07-22T16:32:24.613Z,28.43
2023-07-22T16:34:50.993Z,27.92
2023-07-22T16:37:17.387Z,27.31
2023-07-22T16:39:43.818Z,28.28
2023-07-22T16:42:10.182Z,28.19
2023-07-22T16:44:36.525Z,27.21
2023-07-22T16:47:02.898Z,27.39
2023-07-22T16:49:29.237Z,26.99
2023-07-22T16:51:55.605Z,27.30
2023-07-22T16:54:22.010Z,27.14
2023-07-22T16:56:48.361Z,27.34
2023-07-22T16:59:14.726Z,27.85
2023-07-22T17:01:41.150Z,27.99
2023-07-22T17:04:07.546Z,27.66
2023-07-22T17:06:33.896Z,28.26
2023-07-22T17:09:00.275Z,28.58
2023-07-22T17:11:27.086Z,28.30
2023-07-22T17:13:53.662Z,29.63
2023-07-22T17:16:20.061Z,28.77
2023-07-22T17:18:46.447Z,28.53
2023-07-22T17:21:12.798Z,29.51
2023-07-22T17:23:39.161Z,29.03
2023-07-22T17:26:05.520Z,29.54
2023-07-22T17:28:31.873Z,29.76
2023-07-22T17:30:58.286Z,29.52
2023-07-22T17:33:24.648Z,29.11
2023-07-22T17:35:51.015Z,29.48
2023-07-22T17:38:17.587Z,29.78
2023-07-22T17:40:43.930Z,30.12
2023-07-22T17:43:10.283Z,29.98
2023-07-22T17:45:36.660Z,30.16
2023-07-22T17:48:03.052Z,30.19
2023-07-22T17:50:29.422Z,30.74
2023-07-22T17:52:55.796Z,30.49
2023-07-22T17:55:22.176Z,30.52
2023-07-22T17:57:48.531Z,30.48
2023-07-22T18:00:15.033Z,31.48
2023-07-22T18:02:41.488Z,31.28
2023-07-22T18:05:07.861Z,30.83
2023-07-22T18:07:34.267Z,30.60
2023-07-22T18:10:00.632Z,31.25
2023-07-22T18:12:27.207Z,30.93
2023-07-22T18:14:53.598Z,30.85
2023-07-22T18:17:19.958Z,31.53
2023-07-22T18:19:46.307Z,31.57
2023-07-22T18:22:12.713Z,31.77
2023-07-22T18:24:39.091Z,31.61
2023-07-22T18:27:05.431Z,31.27
2023-07-22T18:29:31.805Z,31.26
2023-07-22T18:31:58.183Z,31.52
2023-07-22T18:34:24.528Z,31.65
2023-07-22T18:36:50.920Z,31.75
2023-07-22T18:39:17.260Z,32.53
2023-07-22T18:41:43.612Z,31.91
2023-07-22T18:44:10.021Z,32.66
2023-07-22T18:46:36.419Z,33.19
2023-07-22T18:49:02.834Z,32.55
2023-07-22T18:51:29.542Z,32.61
2023-07-22T18:53:56.185Z,32.83
2023-07-22T18:56:22.535Z,32.81
2023-07-22T18:58:48.908Z,32.42
2023-07-22T19:01:15.350Z,31.78
2023-07-22T19:03:41.721Z,32.42
2023-07-22T19:06:08.125Z,32.27
2023-07-22T19:08:34.470Z,32.26
2023-07-22T19:11:00.824Z,32.31
2023-07-22T19:13:27.309Z,32.23
2023-07-22T19:15:53.656Z,32.18
2023-07-22T19:18:20.191Z,32.46
2023-07-22T19:20:46.568Z,32.67
2023-07-22T19:23:12.949Z,33.00
2023-07-22T19:25:39.366Z,32.81
2023-07-22T19:28:05.872Z,33.23
2023-07-22T19:30:32.265Z,32.90
2023-07-22T19:32:58.619Z,33.54
2023-07-22T19:35:25.040Z,33.48
2023-07-22T19:37:51.443Z,33.52
2023-07-22T19:40:17.787Z,33.44
2023-07-22T19:42:44.155Z,33.22
2023-07-22T19:45:10.496Z,33.39
2023-07-22T19:47:36.885Z,33.37
2023-07-22T19:50:03.285Z,33.63
2023-07-22T19:52:29.633Z,33.74
2023-07-22T19:54:55.973Z,33.66
2023-07-22T19:57:22.343Z,34.33
2023-07-22T19:59:48.709Z,34.49
2023-07-22T20:02:15.073Z,34.14
2023-07-22T20:04:41.494Z,34.19
2023-07-22T20:07:08.012Z,34.73
2023-07-22T20:09:34.364Z,34.43
2023-07-22T20:12:00.807Z,34.82
2023-07-22T20:14:27.170Z,34.62
2023-07-22T20:16:53.682Z,34.77
2023-07-22T20:19:20.121Z,34.98
2023-07-22T20:21:47.410Z,35.11
2023-07-22T20:24:13.842Z,34.86
2023-07-22T20:26:40.257Z,34.88
2023-07-22T20:29:06.644Z,35.38
2023-07-22T20:31:33.007Z,35.02
2023-07-22T20:33:59.415Z,35.28
2023-07-22T20:36:25.801Z,35.40
2023-07-22T20:38:52.163Z,35.16
2023-07-22T20:41:18.589Z,35.17
2023-07-22T20:43:44.983Z,35.51
2023-07-22T20:46:11.460Z,35.73
2023-07-22T20:48:37.899Z,35.81
2023-07-22T20:51:04.275Z,35.77
2023-07-22T20:53:30.735Z,35.83
2023-07-22T20:55:57.164Z,36.09
2023-07-22T20:58:23.535Z,35.88
2023-07-22T21:00:49.927Z,36.34
2023-07-22T21:03:16.499Z,36.29
2023-07-22T21:05:42.985Z,36.12
2023-07-22T21:08:09.351Z,36.32
2023-07-22T21:10:35.773Z,36.06
2023-07-22T21:13:02.117Z,36.25
2023-07-22T21:15:28.485Z,36.73
2023-07-22T21:17:54.970Z,36.64
2023-07-22T21:20:21.472Z,36.83
2023-07-22T21:22:47.838Z,38.40
2023-07-22T21:25:14.220Z,37.02
2023-07-22T21:27:48.055Z,36.73
2023-07-22T21:30:15.324Z,37.01
2023-07-22T21:32:41.739Z,37.07
2023-07-22T21:35:08.136Z,37.06
2023-07-22T21:37:34.495Z,37.15
2023-07-22T21:40:01.061Z,37.80
2023-07-22T21:42:27.407Z,37.81
2023-07-22T21:44:53.802Z,38.77
2023-07-22T21:47:20.160Z,38.78
2023-07-22T21:49:46.508Z,39.02
2023-07-22T21:52:12.869Z,39.04
2023-07-22T21:54:39.208Z,39.65
2023-07-22T21:57:05.572Z,39.72
2023-07-22T21:59:31.957Z,39.84
2023-07-22T22:01:58.410Z,39.75
2023-07-22T22:04:24.783Z,39.89
2023-07-22T22:06:51.152Z,39.44
2023-07-22T22:09:17.510Z,39.69
2023-07-22T22:11:43.858Z,39.48
2023-07-22T22:14:10.226Z,40.09
2023-07-22T22:16:36.677Z,40.79
2023-07-22T22:19:03.069Z,40.84
2023-07-22T22:21:29.781Z,41.31
2023-07-22T22:23:56.374Z,42.68
2023-07-22T22:26:22.718Z,43.26
2023-07-22T22:28:49.099Z,43.77
2023-07-22T22:31:15.648Z,44.39
2023-07-22T22:33:42.040Z,43.64
2023-07-22T22:36:08.417Z,42.53
2023-07-22T22:38:34.761Z,46.84
2023-07-22T22:41:01.148Z,48.09
2023-07-22T22:43:27.536Z,49.90
2023-07-22T22:45:53.912Z,50.08
2023-07-22T22:48:20.306Z,48.81
2023-07-22T22:50:46.718Z,46.64
2023-07-22T22:53:13.077Z,43.78
2023-07-22T22:55:39.429Z,43.18
2023-07-22T22:58:05.801Z,42.40
2023-07-22T23:00:32.146Z,42.17
2023-07-22T23:02:58.540Z,41.70
2023-07-22T23:05:25.089Z,41.99
2023-07-22T23:07:51.435Z,41.35
2023-07-22T23:10:17.815Z,41.48
2023-07-22T23:12:45.105Z,41.54
2023-07-22T23:15:11.472Z,41.46
2023-07-22T23:17:38.013Z,41.71
2023-07-22T23:20:04.466Z,41.96
2023-07-22T23:22:30.806Z,41.28
2023-07-22T23:24:59.588Z,41.32
2023-07-22T23:27:26.276Z,41.48
2023-07-22T23:29:52.667Z,41.46
2023-07-22T23:32:19.015Z,41.55
2023-07-22T23:34:45.383Z,42.04
2023-07-22T23:37:11.734Z,41.93
2023-07-22T23:39:38.106Z,42.03
2023-07-22T23:42:04.671Z,42.03
2023-07-22T23:44:31.033Z,41.71
2023-07-22T23:46:57.397Z,42.00
2023-07-22T23:49:23.800Z,42.03
2023-07-22T23:51:50.147Z,42.35
2023-07-22T23:54:16.576Z,41.89
2023-07-22T23:56:43.041Z,42.22
2023-07-22T23:59:09.465Z,41.06
